sensor_id;sensor_type;location;lat;lon;timestamp;P1;durP1;ratioP1;P2;durP2;ratioP2
20417;SDS011;10368;51.436;6.774;2022-11-28T00:01:18;6.57;;;5.20;;
20417;SDS011;10368;51.436;6.774;2022-11-28T00:03:45;8.80;;;6.10;;
20417;SDS011;10368;51.436;6.774;2022-11-28T00:06:13;6.73;;;5.27;;
20417;SDS011;10368;51.436;6.774;2022-11-28T00:08:43;11.10;;;5.70;;
20417;SDS011;10368;51.436;6.774;2022-11-28T00:11:12;6.43;;;5.30;;
20417;SDS011;10368;51.436;6.774;2022-11-28T00:13:40;7.37;;;5.17;;
20417;SDS011;10368;51.436;6.774;2022-11-28T00:16:07;7.00;;;5.70;;
20417;SDS011;10368;51.436;6.774;2022-11-28T00:18:35;5.90;;;5.30;;
20417;SDS011;10368;51.436;6.774;2022-11-28T00:21:04;5.93;;;5.33;;
20417;SDS011;10368;51.436;6.774;2022-11-28T00:23:32;8.10;;;5.27;;
20417;SDS011;10368;51.436;6.774;2022-11-28T00:26:03;6.43;;;4.97;;
20417;SDS011;10368;51.436;6.774;2022-11-28T00:28:31;6.97;;;5.57;;
20417;SDS011;10368;51.436;6.774;2022-11-28T00:30:58;6.40;;;5.40;;
20417;SDS011;10368;51.436;6.774;2022-11-28T00:33:25;6.83;;;5.17;;
20417;SDS011;10368;51.436;6.774;2022-11-28T00:35:57;5.50;;;4.97;;
20417;SDS011;10368;51.436;6.774;2022-11-28T00:38:24;7.87;;;6.23;;
20417;SDS011;10368;51.436;6.774;2022-11-28T00:41:02;6.07;;;5.43;;
20417;SDS011;10368;51.436;6.774;2022-11-28T00:43:29;10.20;;;5.73;;
20417;SDS011;10368;51.436;6.774;2022-11-28T00:45:57;7.93;;;5.37;;
20417;SDS011;10368;51.436;6.774;2022-11-28T00:48:24;6.20;;;4.93;;
20417;SDS011;10368;51.436;6.774;2022-11-28T00:50:53;5.27;;;4.77;;
20417;SDS011;10368;51.436;6.774;2022-11-28T00:53:21;8.23;;;5.27;;
20417;SDS011;10368;51.436;6.774;2022-11-28T00:55:48;6.70;;;4.80;;
20417;SDS011;10368;51.436;6.774;2022-11-28T00:58:15;7.50;;;4.77;;
20417;SDS011;10368;51.436;6.774;2022-11-28T01:00:43;8.33;;;5.43;;
20417;SDS011;10368;51.436;6.774;2022-11-28T01:03:10;8.67;;;5.63;;
20417;SDS011;10368;51.436;6.774;2022-11-28T01:05:40;5.43;;;4.93;;
20417;SDS011;10368;51.436;6.774;2022-11-28T01:08:08;5.87;;;5.27;;
20417;SDS011;10368;51.436;6.774;2022-11-28T01:10:40;8.70;;;5.27;;
20417;SDS011;10368;51.436;6.774;2022-11-28T01:13:09;7.43;;;4.90;;
20417;SDS011;10368;51.436;6.774;2022-11-28T01:15:38;5.63;;;5.13;;
20417;SDS011;10368;51.436;6.774;2022-11-28T01:18:06;8.10;;;5.37;;
20417;SDS011;10368;51.436;6.774;2022-11-28T01:20:33;7.60;;;5.10;;
20417;SDS011;10368;51.436;6.774;2022-11-28T01:23:00;7.90;;;5.63;;
20417;SDS011;10368;51.436;6.774;2022-11-28T01:25:28;7.30;;;5.07;;
20417;SDS011;10368;51.436;6.774;2022-11-28T01:27:55;8.07;;;5.27;;
20417;SDS011;10368;51.436;6.774;2022-11-28T01:30:22;7.97;;;4.50;;
20417;SDS011;10368;51.436;6.774;2022-11-28T01:32:49;5.97;;;5.37;;
20417;SDS011;10368;51.436;6.774;2022-11-28T01:35:17;6.40;;;5.07;;
20417;SDS011;10368;51.436;6.774;2022-11-28T01:37:44;5.83;;;5.23;;
20417;SDS011;10368;51.436;6.774;2022-11-28T01:40:12;5.90;;;5.30;;
20417;SDS011;10368;51.436;6.774;2022-11-28T01:42:39;6.50;;;5.80;;
20417;SDS011;10368;51.436;6.774;2022-11-28T01:45:15;5.80;;;5.20;;
20417;SDS011;10368;51.436;6.774;2022-11-28T01:47:44;6.83;;;5.27;;
20417;SDS011;10368;51.436;6.774;2022-11-28T01:50:12;8.70;;;5.50;;
20417;SDS011;10368;51.436;6.774;2022-11-28T01:52:39;5.20;;;4.17;;
20417;SDS011;10368;51.436;6.774;2022-11-28T01:55:09;7.10;;;5.17;;
20417;SDS011;10368;51.436;6.774;2022-11-28T01:57:39;6.03;;;5.10;;
20417;SDS011;10368;51.436;6.774;2022-11-28T02:00:11;8.30;;;5.73;;
20417;SDS011;10368;51.436;6.774;2022-11-28T02:02:40;8.43;;;6.00;;
20417;SDS011;10368;51.436;6.774;2022-11-28T02:05:08;5.73;;;5.10;;
20417;SDS011;10368;51.436;6.774;2022-11-28T02:07:36;6.63;;;4.63;;
20417;SDS011;10368;51.436;6.774;2022-11-28T02:10:04;7.83;;;4.83;;
20417;SDS011;10368;51.436;6.774;2022-11-28T02:16:08;7.07;;;5.33;;
20417;SDS011;10368;51.436;6.774;2022-11-28T02:26:09;7.73;;;5.90;;
20417;SDS011;10368;51.436;6.774;2022-11-28T02:33:50;6.67;;;5.33;;
20417;SDS011;10368;51.436;6.774;2022-11-28T02:36:23;6.93;;;5.90;;
20417;SDS011;10368;51.436;6.774;2022-11-28T02:43:56;10.03;;;5.87;;
20417;SDS011;10368;51.436;6.774;2022-11-28T02:46:33;6.87;;;5.27;;
20417;SDS011;10368;51.436;6.774;2022-11-28T02:49:04;7.57;;;6.20;;
20417;SDS011;10368;51.436;6.774;2022-11-28T02:51:33;11.27;;;6.70;;
20417;SDS011;10368;51.436;6.774;2022-11-28T02:54:02;8.47;;;6.77;;
20417;SDS011;10368;51.436;6.774;2022-11-28T02:56:30;6.90;;;5.70;;
20417;SDS011;10368;51.436;6.774;2022-11-28T02:58:57;11.00;;;5.83;;
20417;SDS011;10368;51.436;6.774;2022-11-28T03:01:27;10.27;;;6.07;;
20417;SDS011;10368;51.436;6.774;2022-11-28T03:19:53;7.67;;;6.87;;
20417;SDS011;10368;51.436;6.774;2022-11-28T03:22:27;9.73;;;6.77;;
20417;SDS011;10368;51.436;6.774;2022-11-28T03:25:02;9.20;;;7.30;;
20417;SDS011;10368;51.436;6.774;2022-11-28T03:27:51;7.90;;;7.10;;
20417;SDS011;10368;51.436;6.774;2022-11-28T03:30:31;8.57;;;7.13;;
20417;SDS011;10368;51.436;6.774;2022-11-28T03:33:00;12.20;;;7.40;;
20417;SDS011;10368;51.436;6.774;2022-11-28T03:35:29;8.07;;;6.53;;
20417;SDS011;10368;51.436;6.774;2022-11-28T03:37:59;9.40;;;6.77;;
20417;SDS011;10368;51.436;6.774;2022-11-28T03:40:29;8.90;;;7.37;;
20417;SDS011;10368;51.436;6.774;2022-11-28T03:42:58;11.10;;;8.50;;
20417;SDS011;10368;51.436;6.774;2022-11-28T03:45:28;9.43;;;8.30;;
20417;SDS011;10368;51.436;6.774;2022-11-28T03:47:57;10.57;;;8.00;;
20417;SDS011;10368;51.436;6.774;2022-11-28T03:50:31;7.87;;;6.57;;
20417;SDS011;10368;51.436;6.774;2022-11-28T03:53:04;9.10;;;6.97;;
20417;SDS011;10368;51.436;6.774;2022-11-28T03:55:37;9.67;;;7.07;;
20417;SDS011;10368;51.436;6.774;2022-11-28T04:00:58;9.20;;;6.80;;
20417;SDS011;10368;51.436;6.774;2022-11-28T04:03:33;9.40;;;7.17;;
20417;SDS011;10368;51.436;6.774;2022-11-28T04:06:01;12.47;;;8.20;;
20417;SDS011;10368;51.436;6.774;2022-11-28T04:08:31;10.37;;;8.30;;
20417;SDS011;10368;51.436;6.774;2022-11-28T04:13:36;11.60;;;7.63;;
20417;SDS011;10368;51.436;6.774;2022-11-28T04:18:37;8.17;;;7.10;;
20417;SDS011;10368;51.436;6.774;2022-11-28T04:23:34;10.73;;;7.63;;
20417;SDS011;10368;51.436;6.774;2022-11-28T04:26:04;11.43;;;7.60;;
20417;SDS011;10368;51.436;6.774;2022-11-28T04:28:33;10.90;;;8.30;;
20417;SDS011;10368;51.436;6.774;2022-11-28T04:31:02;10.63;;;8.07;;
20417;SDS011;10368;51.436;6.774;2022-11-28T04:33:32;11.67;;;8.47;;
20417;SDS011;10368;51.436;6.774;2022-11-28T04:36:01;9.17;;;7.03;;
20417;SDS011;10368;51.436;6.774;2022-11-28T04:38:29;11.63;;;7.67;;
20417;SDS011;10368;51.436;6.774;2022-11-28T04:41:07;9.80;;;7.90;;
20417;SDS011;10368;51.436;6.774;2022-11-28T04:43:41;10.57;;;7.67;;
20417;SDS011;10368;51.436;6.774;2022-11-28T04:46:10;10.17;;;7.33;;
20417;SDS011;10368;51.436;6.774;2022-11-28T04:48:39;9.93;;;7.60;;
20417;SDS011;10368;51.436;6.774;2022-11-28T04:51:20;9.33;;;7.53;;
20417;SDS011;10368;51.436;6.774;2022-11-28T04:56:17;9.17;;;7.70;;
20417;SDS011;10368;51.436;6.774;2022-11-28T04:58:47;9.80;;;8.23;;
20417;SDS011;10368;51.436;6.774;2022-11-28T05:01:17;9.53;;;7.40;;
20417;SDS011;10368;51.436;6.774;2022-11-28T05:03:45;12.67;;;7.23;;
20417;SDS011;10368;51.436;6.774;2022-11-28T05:06:20;10.33;;;7.80;;
20417;SDS011;10368;51.436;6.774;2022-11-28T05:08:49;9.73;;;7.30;;
20417;SDS011;10368;51.436;6.774;2022-11-28T05:11:17;8.03;;;7.23;;
20417;SDS011;10368;51.436;6.774;2022-11-28T05:13:44;10.90;;;7.53;;
20417;SDS011;10368;51.436;6.774;2022-11-28T05:16:11;9.97;;;8.50;;
20417;SDS011;10368;51.436;6.774;2022-11-28T05:18:40;9.50;;;8.20;;
20417;SDS011;10368;51.436;6.774;2022-11-28T05:21:07;9.83;;;7.80;;
20417;SDS011;10368;51.436;6.774;2022-11-28T05:23:36;11.47;;;7.90;;
20417;SDS011;10368;51.436;6.774;2022-11-28T05:26:10;10.30;;;8.03;;
20417;SDS011;10368;51.436;6.774;2022-11-28T05:28:38;9.57;;;7.77;;
20417;SDS011;10368;51.436;6.774;2022-11-28T05:31:05;9.27;;;8.00;;
20417;SDS011;10368;51.436;6.774;2022-11-28T05:33:32;10.77;;;9.20;;
20417;SDS011;10368;51.436;6.774;2022-11-28T05:36:03;9.70;;;8.17;;
20417;SDS011;10368;51.436;6.774;2022-11-28T05:38:37;9.90;;;7.83;;
20417;SDS011;10368;51.436;6.774;2022-11-28T05:41:05;12.73;;;8.53;;
20417;SDS011;10368;51.436;6.774;2022-11-28T05:43:32;11.80;;;7.90;;
20417;SDS011;10368;51.436;6.774;2022-11-28T05:45:59;10.27;;;7.97;;
20417;SDS011;10368;51.436;6.774;2022-11-28T05:48:27;9.23;;;8.03;;
20417;SDS011;10368;51.436;6.774;2022-11-28T05:50:54;12.73;;;9.07;;
20417;SDS011;10368;51.436;6.774;2022-11-28T05:53:22;9.60;;;7.63;;
20417;SDS011;10368;51.436;6.774;2022-11-28T05:55:49;13.40;;;8.30;;
20417;SDS011;10368;51.436;6.774;2022-11-28T05:58:16;10.00;;;7.33;;
20417;SDS011;10368;51.436;6.774;2022-11-28T06:00:44;11.57;;;8.53;;
20417;SDS011;10368;51.436;6.774;2022-11-28T06:03:11;9.30;;;7.57;;
20417;SDS011;10368;51.436;6.774;2022-11-28T06:05:39;12.23;;;8.53;;
20417;SDS011;10368;51.436;6.774;2022-11-28T06:08:12;9.43;;;8.50;;
20417;SDS011;10368;51.436;6.774;2022-11-28T06:10:39;12.60;;;9.13;;
20417;SDS011;10368;51.436;6.774;2022-11-28T06:13:07;9.30;;;8.20;;
20417;SDS011;10368;51.436;6.774;2022-11-28T06:15:34;11.40;;;8.87;;
20417;SDS011;10368;51.436;6.774;2022-11-28T06:18:03;12.07;;;9.57;;
20417;SDS011;10368;51.436;6.774;2022-11-28T06:20:33;9.47;;;8.43;;
20417;SDS011;10368;51.436;6.774;2022-11-28T06:23:00;12.73;;;9.43;;
20417;SDS011;10368;51.436;6.774;2022-11-28T06:25:28;8.20;;;7.40;;
20417;SDS011;10368;51.436;6.774;2022-11-28T06:27:55;12.73;;;8.77;;
20417;SDS011;10368;51.436;6.774;2022-11-28T06:30:22;11.40;;;9.30;;
20417;SDS011;10368;51.436;6.774;2022-11-28T06:32:49;9.63;;;8.00;;
20417;SDS011;10368;51.436;6.774;2022-11-28T06:35:16;12.47;;;8.30;;
20417;SDS011;10368;51.436;6.774;2022-11-28T06:37:44;9.80;;;8.20;;
20417;SDS011;10368;51.436;6.774;2022-11-28T06:40:11;9.10;;;7.80;;
20417;SDS011;10368;51.436;6.774;2022-11-28T06:42:38;10.67;;;8.33;;
20417;SDS011;10368;51.436;6.774;2022-11-28T06:45:08;10.70;;;8.17;;
20417;SDS011;10368;51.436;6.774;2022-11-28T06:47:35;10.10;;;8.07;;
20417;SDS011;10368;51.436;6.774;2022-11-28T06:50:03;11.37;;;8.87;;
20417;SDS011;10368;51.436;6.774;2022-11-28T06:52:30;10.67;;;8.27;;
20417;SDS011;10368;51.436;6.774;2022-11-28T06:54:57;10.23;;;8.50;;
20417;SDS011;10368;51.436;6.774;2022-11-28T06:57:25;8.73;;;7.83;;
20417;SDS011;10368;51.436;6.774;2022-11-28T06:59:52;9.90;;;8.90;;
20417;SDS011;10368;51.436;6.774;2022-11-28T07:02:19;11.90;;;9.27;;
20417;SDS011;10368;51.436;6.774;2022-11-28T07:04:50;12.27;;;9.60;;
20417;SDS011;10368;51.436;6.774;2022-11-28T07:07:17;13.93;;;9.43;;
20417;SDS011;10368;51.436;6.774;2022-11-28T07:09:45;9.23;;;8.33;;
20417;SDS011;10368;51.436;6.774;2022-11-28T07:12:12;13.47;;;8.87;;
20417;SDS011;10368;51.436;6.774;2022-11-28T07:14:40;14.67;;;9.67;;
20417;SDS011;10368;51.436;6.774;2022-11-28T07:17:07;11.87;;;9.10;;
20417;SDS011;10368;51.436;6.774;2022-11-28T07:19:35;14.50;;;9.20;;
20417;SDS011;10368;51.436;6.774;2022-11-28T07:22:02;11.53;;;8.37;;
20417;SDS011;10368;51.436;6.774;2022-11-28T07:24:29;10.63;;;7.97;;
20417;SDS011;10368;51.436;6.774;2022-11-28T07:26:56;9.73;;;8.30;;
20417;SDS011;10368;51.436;6.774;2022-11-28T07:29:24;9.80;;;8.90;;
20417;SDS011;10368;51.436;6.774;2022-11-28T07:31:55;9.43;;;8.27;;
20417;SDS011;10368;51.436;6.774;2022-11-28T07:34:23;10.27;;;8.40;;
20417;SDS011;10368;51.436;6.774;2022-11-28T07:36:50;9.73;;;8.73;;
20417;SDS011;10368;51.436;6.774;2022-11-28T07:39:17;9.60;;;8.70;;
20417;SDS011;10368;51.436;6.774;2022-11-28T07:41:45;13.90;;;9.63;;
20417;SDS011;10368;51.436;6.774;2022-11-28T07:44:12;8.93;;;7.90;;
20417;SDS011;10368;51.436;6.774;2022-11-28T07:46:43;10.20;;;8.17;;
20417;SDS011;10368;51.436;6.774;2022-11-28T07:49:11;9.90;;;8.30;;
20417;SDS011;10368;51.436;6.774;2022-11-28T07:51:39;11.57;;;8.43;;
20417;SDS011;10368;51.436;6.774;2022-11-28T07:54:09;12.13;;;7.63;;
20417;SDS011;10368;51.436;6.774;2022-11-28T07:56:37;10.70;;;8.40;;
20417;SDS011;10368;51.436;6.774;2022-11-28T07:59:25;10.73;;;9.20;;
20417;SDS011;10368;51.436;6.774;2022-11-28T08:01:52;13.47;;;8.60;;
20417;SDS011;10368;51.436;6.774;2022-11-28T08:04:19;12.33;;;10.07;;
20417;SDS011;10368;51.436;6.774;2022-11-28T08:06:47;9.60;;;8.53;;
20417;SDS011;10368;51.436;6.774;2022-11-28T08:09:14;10.43;;;7.93;;
20417;SDS011;10368;51.436;6.774;2022-11-28T08:11:41;11.00;;;8.30;;
20417;SDS011;10368;51.436;6.774;2022-11-28T08:14:09;10.70;;;9.03;;
20417;SDS011;10368;51.436;6.774;2022-11-28T08:16:37;9.70;;;8.20;;
20417;SDS011;10368;51.436;6.774;2022-11-28T08:19:06;9.17;;;7.93;;
20417;SDS011;10368;51.436;6.774;2022-11-28T08:21:33;11.93;;;8.27;;
20417;SDS011;10368;51.436;6.774;2022-11-28T08:24:01;11.07;;;9.13;;
20417;SDS011;10368;51.436;6.774;2022-11-28T08:26:30;10.50;;;8.27;;
20417;SDS011;10368;51.436;6.774;2022-11-28T08:28:58;10.87;;;8.70;;
20417;SDS011;10368;51.436;6.774;2022-11-28T08:31:27;9.83;;;8.07;;
20417;SDS011;10368;51.436;6.774;2022-11-28T08:33:58;11.33;;;8.23;;
20417;SDS011;10368;51.436;6.774;2022-11-28T08:36:26;11.17;;;8.10;;
20417;SDS011;10368;51.436;6.774;2022-11-28T08:38:54;9.30;;;8.37;;
20417;SDS011;10368;51.436;6.774;2022-11-28T08:41:42;8.23;;;7.37;;
20417;SDS011;10368;51.436;6.774;2022-11-28T08:44:09;11.20;;;8.43;;
20417;SDS011;10368;51.436;6.774;2022-11-28T08:46:39;9.97;;;8.40;;
20417;SDS011;10368;51.436;6.774;2022-11-28T08:49:10;10.70;;;8.60;;
20417;SDS011;10368;51.436;6.774;2022-11-28T08:51:37;9.90;;;8.77;;
20417;SDS011;10368;51.436;6.774;2022-11-28T08:54:04;10.50;;;8.40;;
20417;SDS011;10368;51.436;6.774;2022-11-28T08:56:31;14.03;;;10.23;;
20417;SDS011;10368;51.436;6.774;2022-11-28T08:58:59;9.63;;;8.57;;
20417;SDS011;10368;51.436;6.774;2022-11-28T09:01:26;10.57;;;8.37;;
20417;SDS011;10368;51.436;6.774;2022-11-28T09:03:54;10.17;;;9.07;;
20417;SDS011;10368;51.436;6.774;2022-11-28T09:06:22;9.70;;;8.37;;
20417;SDS011;10368;51.436;6.774;2022-11-28T09:08:49;11.60;;;9.23;;
20417;SDS011;10368;51.436;6.774;2022-11-28T09:11:17;11.63;;;9.13;;
20417;SDS011;10368;51.436;6.774;2022-11-28T09:13:45;9.87;;;8.60;;
20417;SDS011;10368;51.436;6.774;2022-11-28T09:16:13;10.97;;;9.27;;
20417;SDS011;10368;51.436;6.774;2022-11-28T09:18:41;10.83;;;8.57;;
20417;SDS011;10368;51.436;6.774;2022-11-28T09:21:09;10.07;;;8.57;;
20417;SDS011;10368;51.436;6.774;2022-11-28T09:23:37;10.87;;;9.57;;
20417;SDS011;10368;51.436;6.774;2022-11-28T09:26:09;10.57;;;8.93;;
20417;SDS011;10368;51.436;6.774;2022-11-28T09:28:37;15.60;;;9.77;;
20417;SDS011;10368;51.436;6.774;2022-11-28T09:31:04;14.33;;;10.97;;
20417;SDS011;10368;51.436;6.774;2022-11-28T09:33:32;13.23;;;10.77;;
20417;SDS011;10368;51.436;6.774;2022-11-28T09:36:09;13.03;;;10.80;;
20417;SDS011;10368;51.436;6.774;2022-11-28T09:38:40;13.53;;;12.13;;
20417;SDS011;10368;51.436;6.774;2022-11-28T09:44:02;15.97;;;12.67;;
20417;SDS011;10368;51.436;6.774;2022-11-28T09:46:33;16.77;;;13.53;;
20417;SDS011;10368;51.436;6.774;2022-11-28T09:49:02;18.27;;;14.03;;
20417;SDS011;10368;51.436;6.774;2022-11-28T09:51:40;18.63;;;14.90;;
20417;SDS011;10368;51.436;6.774;2022-11-28T09:56:37;17.87;;;15.23;;
20417;SDS011;10368;51.436;6.774;2022-11-28T09:59:04;17.43;;;14.93;;
20417;SDS011;10368;51.436;6.774;2022-11-28T10:01:37;21.73;;;17.27;;
20417;SDS011;10368;51.436;6.774;2022-11-28T10:06:39;20.40;;;17.23;;
20417;SDS011;10368;51.436;6.774;2022-11-28T10:19:41;24.77;;;16.70;;
20417;SDS011;10368;51.436;6.774;2022-11-28T10:22:39;19.27;;;16.53;;
20417;SDS011;10368;51.436;6.774;2022-11-28T10:25:18;26.17;;;15.63;;
20417;SDS011;10368;51.436;6.774;2022-11-28T10:27:47;32.73;;;17.37;;
20417;SDS011;10368;51.436;6.774;2022-11-28T10:32:43;19.60;;;13.00;;
20417;SDS011;10368;51.436;6.774;2022-11-28T10:37:54;15.93;;;13.27;;
20417;SDS011;10368;51.436;6.774;2022-11-28T10:43:00;15.97;;;12.57;;
20417;SDS011;10368;51.436;6.774;2022-11-28T10:48:05;23.13;;;13.37;;
20417;SDS011;10368;51.436;6.774;2022-11-28T10:51:01;18.00;;;14.70;;
20417;SDS011;10368;51.436;6.774;2022-11-28T10:58:40;21.77;;;13.10;;
20417;SDS011;10368;51.436;6.774;2022-11-28T11:01:08;14.10;;;10.97;;
20417;SDS011;10368;51.436;6.774;2022-11-28T11:03:38;15.40;;;11.67;;
20417;SDS011;10368;51.436;6.774;2022-11-28T11:06:06;15.27;;;11.20;;
20417;SDS011;10368;51.436;6.774;2022-11-28T11:08:35;16.50;;;11.93;;
20417;SDS011;10368;51.436;6.774;2022-11-28T11:11:23;17.87;;;12.07;;
20417;SDS011;10368;51.436;6.774;2022-11-28T11:19:30;14.97;;;12.63;;
20417;SDS011;10368;51.436;6.774;2022-11-28T11:22:02;16.13;;;11.67;;
20417;SDS011;10368;51.436;6.774;2022-11-28T11:24:30;14.27;;;11.10;;
20417;SDS011;10368;51.436;6.774;2022-11-28T11:27:13;14.83;;;10.90;;
20417;SDS011;10368;51.436;6.774;2022-11-28T11:29:43;14.43;;;10.30;;
20417;SDS011;10368;51.436;6.774;2022-11-28T11:32:20;13.83;;;11.13;;
20417;SDS011;10368;51.436;6.774;2022-11-28T11:34:49;12.97;;;11.07;;
20417;SDS011;10368;51.436;6.774;2022-11-28T11:39:50;12.47;;;10.47;;
20417;SDS011;10368;51.436;6.774;2022-11-28T11:42:22;13.37;;;11.53;;
20417;SDS011;10368;51.436;6.774;2022-11-28T11:44:51;13.27;;;11.47;;
20417;SDS011;10368;51.436;6.774;2022-11-28T11:47:18;15.40;;;10.97;;
20417;SDS011;10368;51.436;6.774;2022-11-28T11:49:47;30.30;;;20.13;;
20417;SDS011;10368;51.436;6.774;2022-11-28T11:57:20;19.83;;;11.60;;
20417;SDS011;10368;51.436;6.774;2022-11-28T12:00:06;14.87;;;11.23;;
20417;SDS011;10368;51.436;6.774;2022-11-28T12:02:42;14.43;;;11.07;;
20417;SDS011;10368;51.436;6.774;2022-11-28T12:10:18;16.30;;;11.23;;
20417;SDS011;10368;51.436;6.774;2022-11-28T12:12:47;15.67;;;11.43;;
20417;SDS011;10368;51.436;6.774;2022-11-28T12:15:15;16.87;;;12.80;;
20417;SDS011;10368;51.436;6.774;2022-11-28T12:17:47;15.67;;;13.70;;
20417;SDS011;10368;51.436;6.774;2022-11-28T12:23:00;17.37;;;13.07;;
20417;SDS011;10368;51.436;6.774;2022-11-28T12:31:11;16.73;;;11.77;;
20417;SDS011;10368;51.436;6.774;2022-11-28T12:36:23;13.87;;;12.17;;
20417;SDS011;10368;51.436;6.774;2022-11-28T12:41:23;14.97;;;11.97;;
20417;SDS011;10368;51.436;6.774;2022-11-28T12:49:16;14.70;;;11.80;;
20417;SDS011;10368;51.436;6.774;2022-11-28T12:57:25;15.47;;;12.27;;
20417;SDS011;10368;51.436;6.774;2022-11-28T13:00:00;14.57;;;12.37;;
20417;SDS011;10368;51.436;6.774;2022-11-28T13:02:38;17.67;;;12.60;;
20417;SDS011;10368;51.436;6.774;2022-11-28T13:23:13;19.13;;;13.90;;
20417;SDS011;10368;51.436;6.774;2022-11-28T13:28:18;18.93;;;11.87;;
20417;SDS011;10368;51.436;6.774;2022-11-28T13:30:51;14.37;;;11.23;;
20417;SDS011;10368;51.436;6.774;2022-11-28T13:33:24;15.73;;;12.70;;
20417;SDS011;10368;51.436;6.774;2022-11-28T13:35:54;15.50;;;12.30;;
20417;SDS011;10368;51.436;6.774;2022-11-28T13:44:21;15.03;;;11.27;;
20417;SDS011;10368;51.436;6.774;2022-11-28T13:46:51;13.67;;;11.30;;
20417;SDS011;10368;51.436;6.774;2022-11-28T13:54:39;11.40;;;10.30;;
20417;SDS011;10368;51.436;6.774;2022-11-28T13:59:39;14.00;;;11.27;;
20417;SDS011;10368;51.436;6.774;2022-11-28T14:02:16;13.37;;;11.03;;
20417;SDS011;10368;51.436;6.774;2022-11-28T14:04:46;11.60;;;10.30;;
20417;SDS011;10368;51.436;6.774;2022-11-28T14:07:23;13.90;;;11.50;;
20417;SDS011;10368;51.436;6.774;2022-11-28T14:10:01;13.17;;;11.13;;
20417;SDS011;10368;51.436;6.774;2022-11-28T14:12:55;12.27;;;10.70;;
20417;SDS011;10368;51.436;6.774;2022-11-28T14:25:38;13.93;;;12.40;;
20417;SDS011;10368;51.436;6.774;2022-11-28T14:30:43;13.30;;;11.90;;
20417;SDS011;10368;51.436;6.774;2022-11-28T14:36:01;13.87;;;11.30;;
20417;SDS011;10368;51.436;6.774;2022-11-28T14:41:04;15.50;;;11.80;;
20417;SDS011;10368;51.436;6.774;2022-11-28T14:43:33;12.13;;;10.83;;
20417;SDS011;10368;51.436;6.774;2022-11-28T14:48:41;12.17;;;10.87;;
20417;SDS011;10368;51.436;6.774;2022-11-28T14:51:11;12.37;;;10.50;;
20417;SDS011;10368;51.436;6.774;2022-11-28T14:53:42;11.73;;;10.53;;
20417;SDS011;10368;51.436;6.774;2022-11-28T14:58:50;12.97;;;10.97;;
20417;SDS011;10368;51.436;6.774;2022-11-28T15:01:28;10.80;;;9.70;;
20417;SDS011;10368;51.436;6.774;2022-11-28T15:06:34;15.00;;;11.20;;
20417;SDS011;10368;51.436;6.774;2022-11-28T15:11:56;14.90;;;11.60;;
20417;SDS011;10368;51.436;6.774;2022-11-28T15:14:28;60.23;;;40.53;;
20417;SDS011;10368;51.436;6.774;2022-11-28T15:16:59;18.93;;;13.50;;
20417;SDS011;10368;51.436;6.774;2022-11-28T15:21:55;14.67;;;11.53;;
20417;SDS011;10368;51.436;6.774;2022-11-28T15:24:26;12.27;;;10.03;;
20417;SDS011;10368;51.436;6.774;2022-11-28T15:26:55;12.70;;;10.17;;
20417;SDS011;10368;51.436;6.774;2022-11-28T15:29:24;14.63;;;10.30;;
20417;SDS011;10368;51.436;6.774;2022-11-28T15:31:53;16.03;;;10.80;;
20417;SDS011;10368;51.436;6.774;2022-11-28T15:34:25;12.77;;;11.00;;
20417;SDS011;10368;51.436;6.774;2022-11-28T15:36:54;12.97;;;11.00;;
20417;SDS011;10368;51.436;6.774;2022-11-28T15:41:53;14.67;;;10.13;;
20417;SDS011;10368;51.436;6.774;2022-11-28T15:44:21;13.53;;;11.23;;
20417;SDS011;10368;51.436;6.774;2022-11-28T15:46:48;15.83;;;12.47;;
20417;SDS011;10368;51.436;6.774;2022-11-28T15:49:26;15.60;;;12.23;;
20417;SDS011;10368;51.436;6.774;2022-11-28T15:51:55;20.90;;;16.87;;
20417;SDS011;10368;51.436;6.774;2022-11-28T15:57:01;20.50;;;14.00;;
20417;SDS011;10368;51.436;6.774;2022-11-28T15:59:28;16.90;;;13.83;;
20417;SDS011;10368;51.436;6.774;2022-11-28T16:02:04;16.47;;;12.27;;
20417;SDS011;10368;51.436;6.774;2022-11-28T16:04:40;16.60;;;12.97;;
20417;SDS011;10368;51.436;6.774;2022-11-28T16:07:10;20.37;;;13.97;;
20417;SDS011;10368;51.436;6.774;2022-11-28T16:09:39;17.53;;;12.63;;
20417;SDS011;10368;51.436;6.774;2022-11-28T16:12:15;14.80;;;13.17;;
20417;SDS011;10368;51.436;6.774;2022-11-28T16:14:42;19.37;;;13.53;;
20417;SDS011;10368;51.436;6.774;2022-11-28T16:17:16;19.83;;;13.47;;
20417;SDS011;10368;51.436;6.774;2022-11-28T16:19:44;15.17;;;13.33;;
20417;SDS011;10368;51.436;6.774;2022-11-28T16:22:16;19.97;;;15.00;;
20417;SDS011;10368;51.436;6.774;2022-11-28T16:24:45;20.70;;;14.90;;
20417;SDS011;10368;51.436;6.774;2022-11-28T16:27:32;15.87;;;13.60;;
20417;SDS011;10368;51.436;6.774;2022-11-28T16:30:01;19.40;;;13.37;;
20417;SDS011;10368;51.436;6.774;2022-11-28T16:32:36;16.77;;;12.90;;
20417;SDS011;10368;51.436;6.774;2022-11-28T16:35:05;16.57;;;13.03;;
20417;SDS011;10368;51.436;6.774;2022-11-28T16:37:33;17.33;;;13.03;;
20417;SDS011;10368;51.436;6.774;2022-11-28T16:40:02;14.67;;;12.23;;
20417;SDS011;10368;51.436;6.774;2022-11-28T16:42:30;18.93;;;14.27;;
20417;SDS011;10368;51.436;6.774;2022-11-28T16:45:05;19.10;;;16.20;;
20417;SDS011;10368;51.436;6.774;2022-11-28T16:47:33;16.10;;;13.43;;
20417;SDS011;10368;51.436;6.774;2022-11-28T16:52:45;21.03;;;14.43;;
20417;SDS011;10368;51.436;6.774;2022-11-28T16:58:09;34.43;;;21.43;;
20417;SDS011;10368;51.436;6.774;2022-11-28T17:00:37;20.70;;;15.13;;
20417;SDS011;10368;51.436;6.774;2022-11-28T17:03:05;24.60;;;15.37;;
20417;SDS011;10368;51.436;6.774;2022-11-28T17:05:38;17.87;;;14.30;;
20417;SDS011;10368;51.436;6.774;2022-11-28T17:08:06;18.60;;;15.43;;
20417;SDS011;10368;51.436;6.774;2022-11-28T17:10:33;27.77;;;17.73;;
20417;SDS011;10368;51.436;6.774;2022-11-28T17:13:01;24.47;;;17.33;;
20417;SDS011;10368;51.436;6.774;2022-11-28T17:15:28;24.60;;;16.67;;
20417;SDS011;10368;51.436;6.774;2022-11-28T17:17:55;31.60;;;17.60;;
20417;SDS011;10368;51.436;6.774;2022-11-28T17:20:24;24.43;;;16.27;;
20417;SDS011;10368;51.436;6.774;2022-11-28T17:22:51;24.53;;;16.23;;
20417;SDS011;10368;51.436;6.774;2022-11-28T17:25:21;29.33;;;17.23;;
20417;SDS011;10368;51.436;6.774;2022-11-28T17:27:48;27.57;;;18.07;;
20417;SDS011;10368;51.436;6.774;2022-11-28T17:30:18;37.30;;;18.70;;
20417;SDS011;10368;51.436;6.774;2022-11-28T17:32:45;27.27;;;16.73;;
20417;SDS011;10368;51.436;6.774;2022-11-28T17:35:16;26.93;;;18.20;;
20417;SDS011;10368;51.436;6.774;2022-11-28T17:37:44;27.57;;;18.80;;
20417;SDS011;10368;51.436;6.774;2022-11-28T17:40:11;27.27;;;18.67;;
20417;SDS011;10368;51.436;6.774;2022-11-28T17:42:57;32.67;;;18.23;;
20417;SDS011;10368;51.436;6.774;2022-11-28T17:45:25;26.60;;;18.63;;
20417;SDS011;10368;51.436;6.774;2022-11-28T17:47:53;24.00;;;17.27;;
20417;SDS011;10368;51.436;6.774;2022-11-28T17:50:20;23.07;;;17.50;;
20417;SDS011;10368;51.436;6.774;2022-11-28T17:52:48;29.43;;;17.90;;
20417;SDS011;10368;51.436;6.774;2022-11-28T17:55:15;27.47;;;18.63;;
20417;SDS011;10368;51.436;6.774;2022-11-28T17:57:43;29.03;;;18.83;;
20417;SDS011;10368;51.436;6.774;2022-11-28T18:00:14;33.63;;;20.30;;
20417;SDS011;10368;51.436;6.774;2022-11-28T18:02:41;26.50;;;17.40;;
20417;SDS011;10368;51.436;6.774;2022-11-28T18:05:09;30.47;;;21.20;;
20417;SDS011;10368;51.436;6.774;2022-11-28T18:07:36;44.27;;;27.50;;
20417;SDS011;10368;51.436;6.774;2022-11-28T18:10:04;33.00;;;21.63;;
20417;SDS011;10368;51.436;6.774;2022-11-28T18:12:31;50.27;;;23.63;;